sensor_id;sensor_type;location;lat;lon;timestamp;P1;durP1;ratioP1;P2;durP2;ratioP2
45236;SDS011;30973;51.442;3.580;2023-08-24T00:01:23;5.43;;;2.90;;
45236;SDS011;30973;51.442;3.580;2023-08-24T00:03:49;4.68;;;2.35;;
45236;SDS011;30973;51.442;3.580;2023-08-24T00:06:16;5.47;;;2.50;;
45236;SDS011;30973;51.442;3.580;2023-08-24T00:08:43;5.80;;;2.28;;
45236;SDS011;30973;51.442;3.580;2023-08-24T00:11:10;5.63;;;2.60;;
45236;SDS011;30973;51.442;3.580;2023-08-24T00:13:41;6.47;;;2.65;;
45236;SDS011;30973;51.442;3.580;2023-08-24T00:16:13;3.95;;;2.35;;
45236;SDS011;30973;51.442;3.580;2023-08-24T00:18:40;4.82;;;2.60;;
45236;SDS011;30973;51.442;3.580;2023-08-24T00:21:06;4.68;;;2.85;;
45236;SDS011;30973;51.442;3.580;2023-08-24T00:23:34;4.70;;;2.78;;
45236;SDS011;30973;51.442;3.580;2023-08-24T00:26:00;9.02;;;2.60;;
45236;SDS011;30973;51.442;3.580;2023-08-24T00:28:27;4.90;;;2.67;;
45236;SDS011;30973;51.442;3.580;2023-08-24T00:30:54;4.10;;;2.50;;
45236;SDS011;30973;51.442;3.580;2023-08-24T00:33:20;5.47;;;2.47;;
45236;SDS011;30973;51.442;3.580;2023-08-24T00:35:47;6.40;;;2.67;;
45236;SDS011;30973;51.442;3.580;2023-08-24T00:38:14;5.40;;;2.53;;
45236;SDS011;30973;51.442;3.580;2023-08-24T00:40:43;5.43;;;2.83;;
45236;SDS011;30973;51.442;3.580;2023-08-24T00:43:10;5.28;;;2.80;;
45236;SDS011;30973;51.442;3.580;2023-08-24T00:45:37;4.72;;;3.00;;
45236;SDS011;30973;51.442;3.580;2023-08-24T00:48:04;3.63;;;2.60;;
45236;SDS011;30973;51.442;3.580;2023-08-24T00:50:31;4.22;;;2.67;;
45236;SDS011;30973;51.442;3.580;2023-08-24T00:52:57;3.83;;;2.67;;
45236;SDS011;30973;51.442;3.580;2023-08-24T00:55:24;5.72;;;2.97;;
45236;SDS011;30973;51.442;3.580;2023-08-24T00:57:52;6.47;;;3.08;;
45236;SDS011;30973;51.442;3.580;2023-08-24T01:00:19;7.53;;;3.30;;
45236;SDS011;30973;51.442;3.580;2023-08-24T01:02:46;8.02;;;4.00;;
45236;SDS011;30973;51.442;3.580;2023-08-24T01:05:13;7.38;;;3.38;;
45236;SDS011;30973;51.442;3.580;2023-08-24T01:07:40;5.43;;;3.47;;
45236;SDS011;30973;51.442;3.580;2023-08-24T01:10:08;7.93;;;3.70;;
45236;SDS011;30973;51.442;3.580;2023-08-24T01:17:42;8.20;;;4.20;;
45236;SDS011;30973;51.442;3.580;2023-08-24T01:20:10;7.90;;;4.13;;
45236;SDS011;30973;51.442;3.580;2023-08-24T01:22:53;12.55;;;4.15;;
45236;SDS011;30973;51.442;3.580;2023-08-24T01:25:26;11.45;;;4.13;;
45236;SDS011;30973;51.442;3.580;2023-08-24T01:27:56;10.45;;;4.30;;
45236;SDS011;30973;51.442;3.580;2023-08-24T01:30:23;12.90;;;4.32;;
45236;SDS011;30973;51.442;3.580;2023-08-24T01:32:50;11.85;;;4.88;;
45236;SDS011;30973;51.442;3.580;2023-08-24T01:35:18;9.25;;;4.55;;
45236;SDS011;30973;51.442;3.580;2023-08-24T01:37:44;7.65;;;4.95;;
45236;SDS011;30973;51.442;3.580;2023-08-24T01:40:26;8.32;;;4.85;;
45236;SDS011;30973;51.442;3.580;2023-08-24T01:42:57;9.23;;;5.15;;
45236;SDS011;30973;51.442;3.580;2023-08-24T01:45:27;11.70;;;4.88;;
45236;SDS011;30973;51.442;3.580;2023-08-24T01:47:55;7.80;;;4.53;;
45236;SDS011;30973;51.442;3.580;2023-08-24T01:50:22;7.57;;;4.53;;
45236;SDS011;30973;51.442;3.580;2023-08-24T01:52:49;5.85;;;4.45;;
45236;SDS011;30973;51.442;3.580;2023-08-24T01:55:18;6.38;;;4.70;;
45236;SDS011;30973;51.442;3.580;2023-08-24T01:57:45;7.88;;;4.97;;
45236;SDS011;30973;51.442;3.580;2023-08-24T02:00:12;7.95;;;5.13;;
45236;SDS011;30973;51.442;3.580;2023-08-24T02:02:39;7.40;;;5.55;;
45236;SDS011;30973;51.442;3.580;2023-08-24T02:05:05;8.20;;;5.53;;
45236;SDS011;30973;51.442;3.580;2023-08-24T02:07:32;11.63;;;5.68;;
45236;SDS011;30973;51.442;3.580;2023-08-24T02:09:59;7.07;;;5.60;;
45236;SDS011;30973;51.442;3.580;2023-08-24T02:12:25;8.02;;;5.20;;
45236;SDS011;30973;51.442;3.580;2023-08-24T02:14:52;7.45;;;5.10;;
45236;SDS011;30973;51.442;3.580;2023-08-24T02:17:19;8.20;;;5.40;;
45236;SDS011;30973;51.442;3.580;2023-08-24T02:19:45;7.47;;;5.07;;
45236;SDS011;30973;51.442;3.580;2023-08-24T02:22:12;10.55;;;6.03;;
45236;SDS011;30973;51.442;3.580;2023-08-24T02:24:38;6.40;;;5.30;;
45236;SDS011;30973;51.442;3.580;2023-08-24T02:27:06;9.35;;;5.45;;
45236;SDS011;30973;51.442;3.580;2023-08-24T02:29:32;7.03;;;5.38;;
45236;SDS011;30973;51.442;3.580;2023-08-24T02:31:59;10.57;;;5.43;;
45236;SDS011;30973;51.442;3.580;2023-08-24T02:34:26;8.35;;;5.45;;
45236;SDS011;30973;51.442;3.580;2023-08-24T02:36:56;9.80;;;5.95;;
45236;SDS011;30973;51.442;3.580;2023-08-24T02:39:23;8.52;;;6.18;;
45236;SDS011;30973;51.442;3.580;2023-08-24T02:41:49;10.20;;;6.30;;
45236;SDS011;30973;51.442;3.580;2023-08-24T02:44:16;11.27;;;6.03;;
45236;SDS011;30973;51.442;3.580;2023-08-24T02:46:47;7.80;;;5.97;;
45236;SDS011;30973;51.442;3.580;2023-08-24T02:49:16;10.85;;;6.03;;
45236;SDS011;30973;51.442;3.580;2023-08-24T02:51:43;9.02;;;6.00;;
45236;SDS011;30973;51.442;3.580;2023-08-24T02:54:10;8.48;;;5.70;;
45236;SDS011;30973;51.442;3.580;2023-08-24T02:56:36;9.55;;;6.22;;
45236;SDS011;30973;51.442;3.580;2023-08-24T02:59:03;9.75;;;6.35;;
45236;SDS011;30973;51.442;3.580;2023-08-24T03:01:30;8.65;;;6.70;;
45236;SDS011;30973;51.442;3.580;2023-08-24T03:03:56;11.43;;;6.35;;
45236;SDS011;30973;51.442;3.580;2023-08-24T03:06:24;8.52;;;6.53;;
45236;SDS011;30973;51.442;3.580;2023-08-24T03:08:50;8.38;;;6.35;;
45236;SDS011;30973;51.442;3.580;2023-08-24T03:11:17;8.10;;;5.93;;
45236;SDS011;30973;51.442;3.580;2023-08-24T03:13:44;7.57;;;6.30;;
45236;SDS011;30973;51.442;3.580;2023-08-24T03:16:10;9.10;;;6.45;;
45236;SDS011;30973;51.442;3.580;2023-08-24T03:18:37;9.73;;;6.53;;
45236;SDS011;30973;51.442;3.580;2023-08-24T03:21:04;8.77;;;6.07;;
45236;SDS011;30973;51.442;3.580;2023-08-24T03:23:32;9.25;;;5.88;;
45236;SDS011;30973;51.442;3.580;2023-08-24T03:25:59;11.75;;;6.10;;
45236;SDS011;30973;51.442;3.580;2023-08-24T03:28:25;8.60;;;6.50;;
45236;SDS011;30973;51.442;3.580;2023-08-24T03:30:52;11.70;;;6.80;;
45236;SDS011;30973;51.442;3.580;2023-08-24T03:33:21;11.18;;;7.00;;
45236;SDS011;30973;51.442;3.580;2023-08-24T03:35:49;10.00;;;6.30;;
45236;SDS011;30973;51.442;3.580;2023-08-24T03:38:16;8.48;;;6.40;;
45236;SDS011;30973;51.442;3.580;2023-08-24T03:40:42;7.65;;;5.82;;
45236;SDS011;30973;51.442;3.580;2023-08-24T03:43:09;10.15;;;6.18;;
45236;SDS011;30973;51.442;3.580;2023-08-24T03:45:36;11.05;;;6.95;;
45236;SDS011;30973;51.442;3.580;2023-08-24T03:48:03;10.52;;;6.70;;
45236;SDS011;30973;51.442;3.580;2023-08-24T03:50:30;8.30;;;6.72;;
45236;SDS011;30973;51.442;3.580;2023-08-24T03:52:57;10.43;;;6.85;;
45236;SDS011;30973;51.442;3.580;2023-08-24T03:55:24;7.65;;;6.20;;
45236;SDS011;30973;51.442;3.580;2023-08-24T03:57:50;7.88;;;6.65;;
45236;SDS011;30973;51.442;3.580;2023-08-24T04:00:18;11.80;;;7.25;;
45236;SDS011;30973;51.442;3.580;2023-08-24T04:02:45;13.00;;;6.90;;
45236;SDS011;30973;51.442;3.580;2023-08-24T04:05:20;10.38;;;6.35;;
45236;SDS011;30973;51.442;3.580;2023-08-24T04:07:47;10.10;;;6.75;;
45236;SDS011;30973;51.442;3.580;2023-08-24T04:10:14;9.20;;;6.32;;
45236;SDS011;30973;51.442;3.580;2023-08-24T04:12:41;10.30;;;6.60;;
45236;SDS011;30973;51.442;3.580;2023-08-24T04:15:08;8.07;;;6.38;;
45236;SDS011;30973;51.442;3.580;2023-08-24T04:17:35;9.10;;;6.75;;
45236;SDS011;30973;51.442;3.580;2023-08-24T04:20:02;10.90;;;7.32;;
45236;SDS011;30973;51.442;3.580;2023-08-24T04:22:30;10.05;;;6.60;;
45236;SDS011;30973;51.442;3.580;2023-08-24T04:24:57;9.43;;;6.65;;
45236;SDS011;30973;51.442;3.580;2023-08-24T04:27:23;12.68;;;6.80;;
45236;SDS011;30973;51.442;3.580;2023-08-24T04:29:50;9.18;;;6.40;;
45236;SDS011;30973;51.442;3.580;2023-08-24T04:32:17;11.77;;;7.25;;
45236;SDS011;30973;51.442;3.580;2023-08-24T04:34:43;13.13;;;7.93;;
45236;SDS011;30973;51.442;3.580;2023-08-24T04:37:10;11.80;;;7.90;;
45236;SDS011;30973;51.442;3.580;2023-08-24T04:39:37;11.05;;;8.07;;
45236;SDS011;30973;51.442;3.580;2023-08-24T04:42:03;14.27;;;7.88;;
45236;SDS011;30973;51.442;3.580;2023-08-24T04:44:30;8.40;;;6.72;;
45236;SDS011;30973;51.442;3.580;2023-08-24T04:46:57;13.52;;;8.20;;
45236;SDS011;30973;51.442;3.580;2023-08-24T04:49:24;11.15;;;8.32;;
45236;SDS011;30973;51.442;3.580;2023-08-24T04:51:51;9.63;;;7.68;;
45236;SDS011;30973;51.442;3.580;2023-08-24T04:54:17;10.80;;;7.95;;
45236;SDS011;30973;51.442;3.580;2023-08-24T04:56:44;11.05;;;7.57;;
45236;SDS011;30973;51.442;3.580;2023-08-24T04:59:10;8.98;;;7.55;;
45236;SDS011;30973;51.442;3.580;2023-08-24T05:01:37;9.85;;;7.88;;
45236;SDS011;30973;51.442;3.580;2023-08-24T05:04:03;10.13;;;7.30;;
45236;SDS011;30973;51.442;3.580;2023-08-24T05:06:30;13.75;;;8.68;;
45236;SDS011;30973;51.442;3.580;2023-08-24T05:08:57;10.77;;;7.72;;
45236;SDS011;30973;51.442;3.580;2023-08-24T05:11:24;9.63;;;8.02;;
45236;SDS011;30973;51.442;3.580;2023-08-24T05:13:52;11.18;;;8.32;;
45236;SDS011;30973;51.442;3.580;2023-08-24T05:16:18;10.73;;;7.70;;
45236;SDS011;30973;51.442;3.580;2023-08-24T05:18:45;10.27;;;8.25;;
45236;SDS011;30973;51.442;3.580;2023-08-24T05:21:12;9.32;;;7.32;;
45236;SDS011;30973;51.442;3.580;2023-08-24T05:23:39;11.40;;;7.70;;
45236;SDS011;30973;51.442;3.580;2023-08-24T05:26:05;11.18;;;7.88;;
45236;SDS011;30973;51.442;3.580;2023-08-24T05:28:32;10.85;;;7.80;;
45236;SDS011;30973;51.442;3.580;2023-08-24T05:30:59;11.07;;;7.93;;
45236;SDS011;30973;51.442;3.580;2023-08-24T05:33:25;9.98;;;7.78;;
45236;SDS011;30973;51.442;3.580;2023-08-24T05:35:52;12.73;;;8.02;;
45236;SDS011;30973;51.442;3.580;2023-08-24T05:38:19;12.38;;;7.95;;
45236;SDS011;30973;51.442;3.580;2023-08-24T05:40:49;11.63;;;8.40;;
45236;SDS011;30973;51.442;3.580;2023-08-24T05:43:15;10.77;;;8.27;;
45236;SDS011;30973;51.442;3.580;2023-08-24T05:45:42;14.05;;;7.78;;
45236;SDS011;30973;51.442;3.580;2023-08-24T05:48:11;9.27;;;7.57;;
45236;SDS011;30973;51.442;3.580;2023-08-24T05:50:42;11.25;;;8.30;;
45236;SDS011;30973;51.442;3.580;2023-08-24T05:53:09;11.13;;;8.18;;
45236;SDS011;30973;51.442;3.580;2023-08-24T05:55:35;15.45;;;8.63;;
45236;SDS011;30973;51.442;3.580;2023-08-24T05:58:02;13.75;;;8.40;;
45236;SDS011;30973;51.442;3.580;2023-08-24T06:00:29;9.45;;;7.85;;
45236;SDS011;30973;51.442;3.580;2023-08-24T06:02:56;10.15;;;8.25;;
45236;SDS011;30973;51.442;3.580;2023-08-24T06:05:23;15.50;;;9.25;;
45236;SDS011;30973;51.442;3.580;2023-08-24T06:07:49;12.25;;;8.30;;
45236;SDS011;30973;51.442;3.580;2023-08-24T06:10:17;15.70;;;8.70;;
45236;SDS011;30973;51.442;3.580;2023-08-24T06:12:43;12.65;;;8.48;;
45236;SDS011;30973;51.442;3.580;2023-08-24T06:15:10;12.25;;;8.18;;
45236;SDS011;30973;51.442;3.580;2023-08-24T06:17:39;12.27;;;8.30;;
45236;SDS011;30973;51.442;3.580;2023-08-24T06:20:06;12.48;;;8.63;;
45236;SDS011;30973;51.442;3.580;2023-08-24T06:22:37;13.65;;;9.05;;
45236;SDS011;30973;51.442;3.580;2023-08-24T06:25:03;11.60;;;9.05;;
45236;SDS011;30973;51.442;3.580;2023-08-24T06:27:31;10.60;;;8.35;;
45236;SDS011;30973;51.442;3.580;2023-08-24T06:29:58;12.27;;;9.05;;
45236;SDS011;30973;51.442;3.580;2023-08-24T06:32:25;13.07;;;8.70;;
45236;SDS011;30973;51.442;3.580;2023-08-24T06:34:51;12.02;;;9.00;;
45236;SDS011;30973;51.442;3.580;2023-08-24T06:37:18;14.85;;;9.23;;
45236;SDS011;30973;51.442;3.580;2023-08-24T06:39:44;14.15;;;8.52;;
45236;SDS011;30973;51.442;3.580;2023-08-24T06:42:11;12.77;;;9.40;;
45236;SDS011;30973;51.442;3.580;2023-08-24T06:44:39;11.55;;;8.95;;
45236;SDS011;30973;51.442;3.580;2023-08-24T06:47:06;9.65;;;8.65;;
45236;SDS011;30973;51.442;3.580;2023-08-24T06:49:32;15.00;;;8.05;;
45236;SDS011;30973;51.442;3.580;2023-08-24T06:51:59;12.40;;;8.80;;
45236;SDS011;30973;51.442;3.580;2023-08-24T06:54:26;12.90;;;9.25;;
45236;SDS011;30973;51.442;3.580;2023-08-24T06:56:54;12.63;;;9.15;;
45236;SDS011;30973;51.442;3.580;2023-08-24T06:59:21;15.15;;;9.30;;
45236;SDS011;30973;51.442;3.580;2023-08-24T07:01:47;14.27;;;9.20;;
45236;SDS011;30973;51.442;3.580;2023-08-24T07:04:14;15.20;;;9.02;;
45236;SDS011;30973;51.442;3.580;2023-08-24T07:06:41;14.50;;;10.30;;
45236;SDS011;30973;51.442;3.580;2023-08-24T07:09:08;14.05;;;9.65;;
45236;SDS011;30973;51.442;3.580;2023-08-24T07:11:35;11.48;;;9.32;;
45236;SDS011;30973;51.442;3.580;2023-08-24T07:14:02;16.02;;;9.32;;
45236;SDS011;30973;51.442;3.580;2023-08-24T07:16:29;12.75;;;9.85;;
45236;SDS011;30973;51.442;3.580;2023-08-24T07:18:55;16.30;;;10.10;;
45236;SDS011;30973;51.442;3.580;2023-08-24T07:21:22;12.82;;;9.93;;
45236;SDS011;30973;51.442;3.580;2023-08-24T07:23:48;13.43;;;10.18;;
45236;SDS011;30973;51.442;3.580;2023-08-24T07:26:15;14.88;;;10.30;;
45236;SDS011;30973;51.442;3.580;2023-08-24T07:28:42;13.30;;;9.82;;
45236;SDS011;30973;51.442;3.580;2023-08-24T07:31:09;14.90;;;10.48;;
45236;SDS011;30973;51.442;3.580;2023-08-24T07:33:40;12.93;;;10.20;;
45236;SDS011;30973;51.442;3.580;2023-08-24T07:36:07;12.57;;;10.73;;
45236;SDS011;30973;51.442;3.580;2023-08-24T07:38:34;12.95;;;10.25;;
45236;SDS011;30973;51.442;3.580;2023-08-24T07:41:00;14.45;;;10.43;;
45236;SDS011;30973;51.442;3.580;2023-08-24T07:43:27;13.95;;;10.57;;
45236;SDS011;30973;51.442;3.580;2023-08-24T07:45:53;17.52;;;10.82;;
45236;SDS011;30973;51.442;3.580;2023-08-24T07:48:21;13.30;;;11.00;;
45236;SDS011;30973;51.442;3.580;2023-08-24T07:50:48;12.50;;;10.23;;
45236;SDS011;30973;51.442;3.580;2023-08-24T07:53:15;14.82;;;10.68;;
45236;SDS011;30973;51.442;3.580;2023-08-24T07:55:42;14.23;;;10.90;;
45236;SDS011;30973;51.442;3.580;2023-08-24T07:58:09;15.15;;;11.27;;
45236;SDS011;30973;51.442;3.580;2023-08-24T08:00:35;13.85;;;11.57;;
45236;SDS011;30973;51.442;3.580;2023-08-24T08:03:02;13.50;;;11.52;;
45236;SDS011;30973;51.442;3.580;2023-08-24T08:05:29;21.15;;;12.85;;
45236;SDS011;30973;51.442;3.580;2023-08-24T08:07:56;14.30;;;12.05;;
45236;SDS011;30973;51.442;3.580;2023-08-24T08:10:22;15.70;;;11.65;;
45236;SDS011;30973;51.442;3.580;2023-08-24T08:12:49;15.02;;;11.52;;
45236;SDS011;30973;51.442;3.580;2023-08-24T08:15:16;14.27;;;11.63;;
45236;SDS011;30973;51.442;3.580;2023-08-24T08:17:42;15.73;;;11.43;;
45236;SDS011;30973;51.442;3.580;2023-08-24T08:20:09;15.95;;;11.60;;
45236;SDS011;30973;51.442;3.580;2023-08-24T08:22:36;13.43;;;10.45;;
45236;SDS011;30973;51.442;3.580;2023-08-24T08:25:05;14.48;;;10.38;;
45236;SDS011;30973;51.442;3.580;2023-08-24T08:27:32;16.48;;;11.38;;
45236;SDS011;30973;51.442;3.580;2023-08-24T08:30:02;15.00;;;12.02;;
45236;SDS011;30973;51.442;3.580;2023-08-24T08:32:31;13.02;;;11.18;;
45236;SDS011;30973;51.442;3.580;2023-08-24T08:34:58;15.40;;;11.98;;
45236;SDS011;30973;51.442;3.580;2023-08-24T08:37:26;15.85;;;11.80;;
45236;SDS011;30973;51.442;3.580;2023-08-24T08:39:53;12.85;;;10.43;;
45236;SDS011;30973;51.442;3.580;2023-08-24T08:42:20;15.85;;;11.20;;
45236;SDS011;30973;51.442;3.580;2023-08-24T08:44:46;16.05;;;11.45;;
45236;SDS011;30973;51.442;3.580;2023-08-24T08:47:15;18.35;;;12.07;;
45236;SDS011;30973;51.442;3.580;2023-08-24T08:49:43;17.88;;;12.68;;
45236;SDS011;30973;51.442;3.580;2023-08-24T08:52:11;16.73;;;13.02;;
45236;SDS011;30973;51.442;3.580;2023-08-24T08:54:38;18.70;;;12.75;;
45236;SDS011;30973;51.442;3.580;2023-08-24T08:57:05;19.42;;;12.45;;
45236;SDS011;30973;51.442;3.580;2023-08-24T08:59:32;15.68;;;12.02;;
45236;SDS011;30973;51.442;3.580;2023-08-24T09:02:02;16.67;;;12.30;;
45236;SDS011;30973;51.442;3.580;2023-08-24T09:04:32;15.13;;;11.50;;
45236;SDS011;30973;51.442;3.580;2023-08-24T09:07:00;15.57;;;11.02;;
45236;SDS011;30973;51.442;3.580;2023-08-24T09:09:37;14.05;;;11.18;;
45236;SDS011;30973;51.442;3.580;2023-08-24T09:12:07;16.20;;;11.93;;
45236;SDS011;30973;51.442;3.580;2023-08-24T09:14:34;15.73;;;11.55;;
45236;SDS011;30973;51.442;3.580;2023-08-24T09:17:01;14.30;;;11.25;;
45236;SDS011;30973;51.442;3.580;2023-08-24T09:19:30;14.27;;;11.60;;
45236;SDS011;30973;51.442;3.580;2023-08-24T09:21:57;19.05;;;12.50;;
45236;SDS011;30973;51.442;3.580;2023-08-24T09:24:34;14.20;;;11.80;;
45236;SDS011;30973;51.442;3.580;2023-08-24T09:27:14;13.68;;;11.52;;
45236;SDS011;30973;51.442;3.580;2023-08-24T09:29:41;17.88;;;11.50;;
45236;SDS011;30973;51.442;3.580;2023-08-24T09:32:08;15.23;;;10.65;;
45236;SDS011;30973;51.442;3.580;2023-08-24T09:34:35;13.43;;;9.68;;
45236;SDS011;30973;51.442;3.580;2023-08-24T09:37:02;14.65;;;9.88;;
45236;SDS011;30973;51.442;3.580;2023-08-24T09:39:32;15.75;;;9.80;;
45236;SDS011;30973;51.442;3.580;2023-08-24T09:41:59;13.63;;;9.10;;
45236;SDS011;30973;51.442;3.580;2023-08-24T09:44:26;11.10;;;8.98;;
45236;SDS011;30973;51.442;3.580;2023-08-24T09:46:53;13.60;;;9.15;;
45236;SDS011;30973;51.442;3.580;2023-08-24T09:49:20;15.98;;;9.68;;
45236;SDS011;30973;51.442;3.580;2023-08-24T09:51:47;17.52;;;9.23;;
45236;SDS011;30973;51.442;3.580;2023-08-24T09:54:15;15.85;;;10.23;;
45236;SDS011;30973;51.442;3.580;2023-08-24T09:56:43;13.82;;;9.48;;
45236;SDS011;30973;51.442;3.580;2023-08-24T10:01:40;14.15;;;8.93;;
45236;SDS011;30973;51.442;3.580;2023-08-24T10:04:08;15.40;;;9.35;;
45236;SDS011;30973;51.442;3.580;2023-08-24T10:06:35;13.45;;;9.30;;
45236;SDS011;30973;51.442;3.580;2023-08-24T10:09:04;15.52;;;9.25;;
45236;SDS011;30973;51.442;3.580;2023-08-24T10:11:34;15.02;;;9.13;;
45236;SDS011;30973;51.442;3.580;2023-08-24T10:16:47;17.58;;;8.35;;
45236;SDS011;30973;51.442;3.580;2023-08-24T10:19:15;13.77;;;9.10;;
45236;SDS011;30973;51.442;3.580;2023-08-24T10:21:41;13.48;;;7.88;;
45236;SDS011;30973;51.442;3.580;2023-08-24T10:24:08;17.38;;;8.80;;
45236;SDS011;30973;51.442;3.580;2023-08-24T10:26:37;11.55;;;7.78;;
45236;SDS011;30973;51.442;3.580;2023-08-24T10:29:06;11.18;;;8.68;;
45236;SDS011;30973;51.442;3.580;2023-08-24T10:31:33;10.15;;;7.45;;
45236;SDS011;30973;51.442;3.580;2023-08-24T10:34:00;10.63;;;7.70;;
45236;SDS011;30973;51.442;3.580;2023-08-24T10:36:28;12.23;;;7.90;;
45236;SDS011;30973;51.442;3.580;2023-08-24T10:38:55;9.98;;;7.43;;
45236;SDS011;30973;51.442;3.580;2023-08-24T10:41:26;9.90;;;7.15;;
45236;SDS011;30973;51.442;3.580;2023-08-24T10:43:53;10.45;;;7.32;;
45236;SDS011;30973;51.442;3.580;2023-08-24T10:46:30;12.68;;;7.40;;
45236;SDS011;30973;51.442;3.580;2023-08-24T10:49:03;11.90;;;8.05;;
45236;SDS011;30973;51.442;3.580;2023-08-24T10:51:30;10.52;;;7.38;;
45236;SDS011;30973;51.442;3.580;2023-08-24T10:53:59;13.10;;;7.88;;
45236;SDS011;30973;51.442;3.580;2023-08-24T10:56:30;12.30;;;8.38;;
45236;SDS011;30973;51.442;3.580;2023-08-24T10:59:10;8.75;;;7.75;;
45236;SDS011;30973;51.442;3.580;2023-08-24T11:01:39;11.52;;;7.50;;
45236;SDS011;30973;51.442;3.580;2023-08-24T11:04:06;9.55;;;7.65;;
45236;SDS011;30973;51.442;3.580;2023-08-24T11:06:50;12.00;;;8.50;;
45236;SDS011;30973;51.442;3.580;2023-08-24T11:09:18;9.60;;;8.55;;
45236;SDS011;30973;51.442;3.580;2023-08-24T11:11:57;10.35;;;8.40;;
45236;SDS011;30973;51.442;3.580;2023-08-24T11:14:24;9.88;;;7.93;;
45236;SDS011;30973;51.442;3.580;2023-08-24T11:16:59;10.63;;;7.53;;
45236;SDS011;30973;51.442;3.580;2023-08-24T11:19:26;8.88;;;7.50;;
45236;SDS011;30973;51.442;3.580;2023-08-24T11:21:53;10.00;;;7.80;;
45236;SDS011;30973;51.442;3.580;2023-08-24T11:24:19;11.68;;;7.80;;
45236;SDS011;30973;51.442;3.580;2023-08-24T11:26:47;10.00;;;7.60;;
45236;SDS011;30973;51.442;3.580;2023-08-24T11:29:14;8.52;;;6.85;;
45236;SDS011;30973;51.442;3.580;2023-08-24T11:31:42;7.72;;;6.32;;
45236;SDS011;30973;51.442;3.580;2023-08-24T11:34:09;9.15;;;6.75;;
45236;SDS011;30973;51.442;3.580;2023-08-24T11:39:14;10.15;;;6.20;;
45236;SDS011;30973;51.442;3.580;2023-08-24T11:41:41;11.82;;;7.05;;
45236;SDS011;30973;51.442;3.580;2023-08-24T11:44:07;10.50;;;8.35;;
45236;SDS011;30973;51.442;3.580;2023-08-24T11:46:55;15.65;;;9.35;;
45236;SDS011;30973;51.442;3.580;2023-08-24T11:49:22;15.93;;;10.30;;
45236;SDS011;30973;51.442;3.580;2023-08-24T11:51:48;11.80;;;9.38;;
45236;SDS011;30973;51.442;3.580;2023-08-24T11:54:17;14.07;;;10.65;;
45236;SDS011;30973;51.442;3.580;2023-08-24T11:56:45;13.85;;;10.00;;
45236;SDS011;30973;51.442;3.580;2023-08-24T11:59:13;13.15;;;9.93;;
45236;SDS011;30973;51.442;3.580;2023-08-24T12:01:43;12.32;;;10.00;;
45236;SDS011;30973;51.442;3.580;2023-08-24T12:04:11;13.27;;;9.60;;
45236;SDS011;30973;51.442;3.580;2023-08-24T12:06:38;11.18;;;8.20;;
45236;SDS011;30973;51.442;3.580;2023-08-24T12:09:06;5.93;;;4.80;;
45236;SDS011;30973;51.442;3.580;2023-08-24T12:11:36;7.85;;;4.22;;
45236;SDS011;30973;51.442;3.580;2023-08-24T12:14:03;5.13;;;3.60;;
45236;SDS011;30973;51.442;3.580;2023-08-24T12:16:30;5.47;;;3.47;;
45236;SDS011;30973;51.442;3.580;2023-08-24T12:18:59;8.95;;;3.85;;
45236;SDS011;30973;51.442;3.580;2023-08-24T12:21:26;7.78;;;3.75;;
45236;SDS011;30973;51.442;3.580;2023-08-24T12:24:03;5.82;;;3.08;;
45236;SDS011;30973;51.442;3.580;2023-08-24T12:26:32;6.97;;;3.38;;
45236;SDS011;30973;51.442;3.580;2023-08-24T12:29:04;4.43;;;3.20;;
45236;SDS011;30973;51.442;3.580;2023-08-24T12:31:35;5.07;;;3.50;;
45236;SDS011;30973;51.442;3.580;2023-08-24T12:34:05;6.60;;;3.95;;
45236;SDS011;30973;51.442;3.580;2023-08-24T12:36:32;7.35;;;3.95;;
45236;SDS011;30973;51.442;3.580;2023-08-24T12:38:59;8.70;;;4.60;;
45236;SDS011;30973;51.442;3.580;2023-08-24T12:41:26;5.57;;;3.65;;
45236;SDS011;30973;51.442;3.580;2023-08-24T12:43:53;8.55;;;4.10;;
45236;SDS011;30973;51.442;3.580;2023-08-24T12:46:19;6.57;;;3.92;;
45236;SDS011;30973;51.442;3.580;2023-08-24T12:48:46;7.05;;;4.10;;
45236;SDS011;30973;51.442;3.580;2023-08-24T12:51:13;6.60;;;4.00;;
45236;SDS011;30973;51.442;3.580;2023-08-24T12:53:40;6.68;;;4.25;;
45236;SDS011;30973;51.442;3.580;2023-08-24T12:56:06;6.40;;;4.05;;
45236;SDS011;30973;51.442;3.580;2023-08-24T12:58:33;8.32;;;5.13;;
45236;SDS011;30973;51.442;3.580;2023-08-24T13:01:00;5.40;;;3.20;;
45236;SDS011;30973;51.442;3.580;2023-08-24T13:03:26;4.13;;;2.83;;
45236;SDS011;30973;51.442;3.580;2023-08-24T13:05:53;7.75;;;3.22;;
45236;SDS011;30973;51.442;3.580;2023-08-24T13:08:24;7.47;;;3.35;;
45236;SDS011;30973;51.442;3.580;2023-08-24T13:10:51;7.93;;;3.10;;
45236;SDS011;30973;51.442;3.580;2023-08-24T13:13:18;4.18;;;3.03;;
45236;SDS011;30973;51.442;3.580;2023-08-24T13:15:50;7.88;;;3.10;;
45236;SDS011;30973;51.442;3.580;2023-08-24T13:18:20;4.72;;;2.90;;
45236;SDS011;30973;51.442;3.580;2023-08-24T13:20:46;4.40;;;2.85;;
45236;SDS011;30973;51.442;3.580;2023-08-24T13:23:13;3.90;;;3.00;;
45236;SDS011;30973;51.442;3.580;2023-08-24T13:25:40;5.00;;;2.80;;
45236;SDS011;30973;51.442;3.580;2023-08-24T13:28:07;4.03;;;2.92;;
45236;SDS011;30973;51.442;3.580;2023-08-24T13:30:33;5.03;;;2.88;;
45236;SDS011;30973;51.442;3.580;2023-08-24T13:33:00;4.40;;;2.88;;
45236;SDS011;30973;51.442;3.580;2023-08-24T13:35:27;5.20;;;2.92;;
45236;SDS011;30973;51.442;3.580;2023-08-24T13:37:54;4.78;;;2.83;;
45236;SDS011;30973;51.442;3.580;2023-08-24T13:40:20;4.68;;;2.88;;
45236;SDS011;30973;51.442;3.580;2023-08-24T13:42:47;6.50;;;3.00;;
45236;SDS011;30973;51.442;3.580;2023-08-24T13:45:14;8.57;;;3.30;;
45236;SDS011;30973;51.442;3.580;2023-08-24T13:47:41;4.95;;;3.10;;
45236;SDS011;30973;51.442;3.580;2023-08-24T13:50:07;4.10;;;3.00;;
45236;SDS011;30973;51.442;3.580;2023-08-24T13:52:34;5.57;;;3.22;;
45236;SDS011;30973;51.442;3.580;2023-08-24T13:55:01;4.25;;;3.10;;
45236;SDS011;30973;51.442;3.580;2023-08-24T13:57:38;4.70;;;2.95;;
45236;SDS011;30973;51.442;3.580;2023-08-24T14:00:05;7.18;;;3.45;;
45236;SDS011;30973;51.442;3.580;2023-08-24T14:02:40;3.85;;;2.60;;
45236;SDS011;30973;51.442;3.580;2023-08-24T14:05:07;7.00;;;2.78;;
45236;SDS011;30973;51.442;3.580;2023-08-24T14:07:36;5.85;;;2.65;;
45236;SDS011;30973;51.442;3.580;2023-08-24T14:10:02;5.35;;;3.40;;
45236;SDS011;30973;51.442;3.580;2023-08-24T14:12:32;5.07;;;3.20;;
45236;SDS011;30973;51.442;3.580;2023-08-24T14:14:59;5.03;;;2.97;;
45236;SDS011;30973;51.442;3.580;2023-08-24T14:17:26;5.75;;;3.40;;
45236;SDS011;30973;51.442;3.580;2023-08-24T14:19:52;6.82;;;3.40;;
45236;SDS011;30973;51.442;3.580;2023-08-24T14:22:19;5.78;;;3.10;;
45236;SDS011;30973;51.442;3.580;2023-08-24T14:24:45;4.32;;;2.70;;
45236;SDS011;30973;51.442;3.580;2023-08-24T14:27:12;4.75;;;2.58;;
45236;SDS011;30973;51.442;3.580;2023-08-24T14:29:38;6.88;;;3.28;;
45236;SDS011;30973;51.442;3.580;2023-08-24T14:32:05;4.65;;;2.53;;
45236;SDS011;30973;51.442;3.580;2023-08-24T14:34:32;3.33;;;2.47;;
45236;SDS011;30973;51.442;3.580;2023-08-24T14:36:58;4.05;;;3.13;;
45236;SDS011;30973;51.442;3.580;2023-08-24T14:39:25;3.92;;;2.85;;
45236;SDS011;30973;51.442;3.580;2023-08-24T14:41:51;4.78;;;2.90;;
45236;SDS011;30973;51.442;3.580;2023-08-24T14:44:18;4.03;;;2.92;;
45236;SDS011;30973;51.442;3.580;2023-08-24T14:46:44;4.40;;;2.97;;
45236;SDS011;30973;51.442;3.580;2023-08-24T14:49:11;4.28;;;2.88;;
45236;SDS011;30973;51.442;3.580;2023-08-24T14:51:38;5.80;;;3.00;;
45236;SDS011;30973;51.442;3.580;2023-08-24T14:54:04;5.50;;;3.45;;